LPA502 LTAC-UGTB
Flight info
| Callsign | LPA502 |
|---|---|
| Flight time | 1h 32m |
| Altitude | 35000 |
| Route | GOBIT UL614 JUPNE UT54 SIV DCT GONPU UN61 NOLGA N61 LAGAS |
| Aircraft | B738/M-SDE2E3FGHIRWXY/LB1 |
Departure
| Time | 2026-04-28 20:34 |
|---|---|
| Airport | Esenboğa International Airport (LTAC) |
Arrival
| Time | 2026-04-28 22:07 |
|---|---|
| Airport | Tbilisi International Airport (UGTB) |
| Time | Latitude | Longitude | Altitude | Speed | Heading |
|---|---|---|---|---|---|
| 2026-04-28 20:02 | 40.11709 | 32.99621 | 3112 ft | 0 kts | 183° |
| 2026-04-28 20:15 | 40.11714 | 32.99621 | 3112 ft | 1 kts | 183° |
| 2026-04-28 20:15 | 40.11722 | 32.99622 | 3112 ft | 1 kts | 183° |
| 2026-04-28 20:15 | 40.11733 | 32.99623 | 3112 ft | 1 kts | 183° |
| 2026-04-28 20:16 | 40.11743 | 32.99623 | 3112 ft | 1 kts | 183° |
| 2026-04-28 20:16 | 40.11753 | 32.99624 | 3112 ft | 1 kts | 183° |
| 2026-04-28 20:16 | 40.11763 | 32.99625 | 3112 ft | 1 kts | 191° |
| 2026-04-28 20:16 | 40.11773 | 32.99629 | 3112 ft | 1 kts | 211° |
| 2026-04-28 20:17 | 40.11781 | 32.99637 | 3112 ft | 1 kts | 237° |
| 2026-04-28 20:17 | 40.11785 | 32.99649 | 3112 ft | 1 kts | 255° |
| 2026-04-28 20:17 | 40.11787 | 32.99660 | 3112 ft | 0 kts | 269° |
| 2026-04-28 20:22 | 40.11787 | 32.99659 | 3112 ft | 0 kts | 269° |
| 2026-04-28 20:22 | 40.11787 | 32.99646 | 3112 ft | 3 kts | 269° |
| 2026-04-28 20:22 | 40.11786 | 32.99616 | 3112 ft | 3 kts | 268° |
| 2026-04-28 20:22 | 40.11785 | 32.99584 | 3112 ft | 4 kts | 267° |
| 2026-04-28 20:23 | 40.11783 | 32.99534 | 3112 ft | 7 kts | 265° |
| 2026-04-28 20:23 | 40.11776 | 32.99456 | 3112 ft | 10 kts | 261° |
| 2026-04-28 20:23 | 40.11758 | 32.99357 | 3112 ft | 12 kts | 253° |
| 2026-04-28 20:23 | 40.11733 | 32.99256 | 3112 ft | 11 kts | 250° |
| 2026-04-28 20:24 | 40.11701 | 32.99157 | 3112 ft | 12 kts | 243° |
| 2026-04-28 20:24 | 40.11654 | 32.99062 | 3112 ft | 13 kts | 236° |
| 2026-04-28 20:24 | 40.11598 | 32.98967 | 3112 ft | 14 kts | 229° |
| 2026-04-28 20:24 | 40.11528 | 32.98878 | 3112 ft | 14 kts | 221° |
| 2026-04-28 20:25 | 40.11447 | 32.98796 | 3112 ft | 15 kts | 216° |
| 2026-04-28 20:25 | 40.11360 | 32.98714 | 3112 ft | 15 kts | 217° |
| 2026-04-28 20:25 | 40.11302 | 32.98658 | 3109 ft | 7 kts | 216° |
| 2026-04-28 20:25 | 40.11269 | 32.98614 | 3109 ft | 7 kts | 248° |
| 2026-04-28 20:26 | 40.11284 | 32.98559 | 3108 ft | 7 kts | 306° |
| 2026-04-28 20:26 | 40.11311 | 32.98511 | 3108 ft | 7 kts | 307° |
| 2026-04-28 20:26 | 40.11334 | 32.98470 | 3108 ft | 0 kts | 306° |
| 2026-04-28 20:27 | 40.11340 | 32.98459 | 3108 ft | 3 kts | 306° |
| 2026-04-28 20:28 | 40.11359 | 32.98426 | 3108 ft | 6 kts | 306° |
| 2026-04-28 20:28 | 40.11364 | 32.98416 | 3108 ft | 0 kts | 306° |
| 2026-04-28 20:29 | 40.11366 | 32.98413 | 3108 ft | 1 kts | 306° |
| 2026-04-28 20:29 | 40.11379 | 32.98391 | 3108 ft | 5 kts | 306° |
| 2026-04-28 20:30 | 40.11405 | 32.98345 | 3108 ft | 8 kts | 306° |
| 2026-04-28 20:30 | 40.11443 | 32.98278 | 3108 ft | 10 kts | 306° |
| 2026-04-28 20:30 | 40.11473 | 32.98224 | 3108 ft | 3 kts | 306° |
| 2026-04-28 20:30 | 40.11474 | 32.98223 | 3108 ft | 0 kts | 306° |
| 2026-04-28 20:31 | 40.11482 | 32.98209 | 3108 ft | 5 kts | 306° |
| 2026-04-28 20:31 | 40.11524 | 32.98163 | 3108 ft | 10 kts | 339° |
| 2026-04-28 20:31 | 40.11581 | 32.98178 | 3109 ft | 0 kts | 34° |
| 2026-04-28 20:33 | 40.11584 | 32.98181 | 3109 ft | 4 kts | 34° |
| 2026-04-28 20:33 | 40.11724 | 32.98315 | 3110 ft | 56 kts | 36° |
| 2026-04-28 20:33 | 40.12215 | 32.98781 | 3115 ft | 117 kts | 36° |
| 2026-04-28 20:34 | 40.13016 | 32.99544 | 3124 ft | 166 kts | 36° |
| 2026-04-28 20:34 | 40.14043 | 33.00551 | 3330 ft | 195 kts | 38° |
| 2026-04-28 20:34 | 40.15011 | 33.01684 | 4203 ft | 182 kts | 46° |
| 2026-04-28 20:34 | 40.15954 | 33.02797 | 4733 ft | 183 kts | 37° |
| 2026-04-28 20:35 | 40.17010 | 33.03869 | 4956 ft | 203 kts | 38° |
| 2026-04-28 20:35 | 40.18166 | 33.05059 | 5102 ft | 220 kts | 38° |
| 2026-04-28 20:35 | 40.19405 | 33.06353 | 5264 ft | 236 kts | 39° |
| 2026-04-28 20:35 | 40.20464 | 33.08047 | 5477 ft | 250 kts | 69° |
| 2026-04-28 20:36 | 40.20680 | 33.10322 | 5817 ft | 263 kts | 100° |
| 2026-04-28 20:36 | 40.19932 | 33.12548 | 6158 ft | 275 kts | 126° |
| 2026-04-28 20:36 | 40.18754 | 33.14540 | 6717 ft | 279 kts | 129° |
| 2026-04-28 20:36 | 40.17529 | 33.16525 | 7334 ft | 282 kts | 130° |
| 2026-04-28 20:37 | 40.16293 | 33.18527 | 7957 ft | 285 kts | 130° |
| 2026-04-28 20:37 | 40.15042 | 33.20565 | 8563 ft | 289 kts | 130° |
| 2026-04-28 20:37 | 40.13783 | 33.22630 | 9196 ft | 293 kts | 130° |
| 2026-04-28 20:37 | 40.12512 | 33.24725 | 9846 ft | 296 kts | 130° |
| 2026-04-28 20:38 | 40.11223 | 33.26855 | 10321 ft | 305 kts | 130° |
| 2026-04-28 20:38 | 40.09858 | 33.29110 | 10468 ft | 327 kts | 130° |
| 2026-04-28 20:38 | 40.08407 | 33.31505 | 10621 ft | 345 kts | 130° |
| 2026-04-28 20:38 | 40.06878 | 33.34030 | 10821 ft | 361 kts | 130° |
| 2026-04-28 20:39 | 40.05304 | 33.36632 | 11285 ft | 368 kts | 130° |
| 2026-04-28 20:39 | 40.03707 | 33.39268 | 11851 ft | 373 kts | 130° |
| 2026-04-28 20:39 | 40.02092 | 33.41928 | 12459 ft | 375 kts | 129° |
| 2026-04-28 20:39 | 40.00509 | 33.44658 | 13051 ft | 380 kts | 126° |
| 2026-04-28 20:40 | 39.99003 | 33.47516 | 13685 ft | 384 kts | 124° |
| 2026-04-28 20:40 | 39.97515 | 33.50437 | 14272 ft | 389 kts | 124° |
| 2026-04-28 20:40 | 39.96018 | 33.53386 | 14880 ft | 392 kts | 124° |
| 2026-04-28 20:40 | 39.94504 | 33.56349 | 15516 ft | 394 kts | 124° |
| 2026-04-28 20:41 | 39.92968 | 33.59330 | 16124 ft | 397 kts | 124° |
| 2026-04-28 20:41 | 39.91414 | 33.62327 | 16713 ft | 401 kts | 124° |
| 2026-04-28 20:41 | 39.89843 | 33.65344 | 17294 ft | 405 kts | 124° |
| 2026-04-28 20:41 | 39.88253 | 33.68389 | 17887 ft | 408 kts | 124° |
| 2026-04-28 20:42 | 39.86651 | 33.71454 | 18447 ft | 411 kts | 124° |
| 2026-04-28 20:42 | 39.85033 | 33.74545 | 18953 ft | 415 kts | 124° |
| 2026-04-28 20:42 | 39.83404 | 33.77655 | 19483 ft | 417 kts | 124° |
| 2026-04-28 20:42 | 39.81766 | 33.80781 | 20019 ft | 419 kts | 124° |
| 2026-04-28 20:43 | 39.80122 | 33.83916 | 20520 ft | 422 kts | 124° |
| 2026-04-28 20:43 | 39.78459 | 33.87079 | 20980 ft | 425 kts | 124° |
| 2026-04-28 20:43 | 39.76953 | 33.90401 | 21413 ft | 429 kts | 113° |
| 2026-04-28 20:43 | 39.75896 | 33.94036 | 21904 ft | 431 kts | 109° |
| 2026-04-28 20:44 | 39.74919 | 33.97730 | 22383 ft | 434 kts | 108° |
| 2026-04-28 20:44 | 39.73966 | 34.01327 | 22819 ft | 437 kts | 109° |
| 2026-04-28 20:44 | 39.72953 | 34.05068 | 23239 ft | 441 kts | 109° |
| 2026-04-28 20:44 | 39.71911 | 34.08825 | 23631 ft | 445 kts | 110° |
| 2026-04-28 20:45 | 39.70843 | 34.12610 | 24004 ft | 447 kts | 110° |
| 2026-04-28 20:45 | 39.69763 | 34.16405 | 24400 ft | 449 kts | 110° |
| 2026-04-28 20:45 | 39.68676 | 34.20213 | 24783 ft | 451 kts | 110° |
| 2026-04-28 20:45 | 39.67583 | 34.24033 | 25141 ft | 453 kts | 110° |
| 2026-04-28 20:46 | 39.66484 | 34.27875 | 25493 ft | 455 kts | 110° |
| 2026-04-28 20:46 | 39.65395 | 34.31684 | 25833 ft | 457 kts | 110° |
| 2026-04-28 20:46 | 39.64272 | 34.35626 | 26128 ft | 461 kts | 109° |
| 2026-04-28 20:46 | 39.63469 | 34.39662 | 26430 ft | 464 kts | 99° |
| 2026-04-28 20:47 | 39.63171 | 34.43771 | 26772 ft | 465 kts | 90° |
| 2026-04-28 20:47 | 39.63364 | 34.47959 | 27105 ft | 466 kts | 82° |
| 2026-04-28 20:47 | 39.63774 | 34.52138 | 27423 ft | 468 kts | 82° |
| 2026-04-28 20:47 | 39.64200 | 34.56334 | 27711 ft | 471 kts | 82° |
| 2026-04-28 20:48 | 39.64622 | 34.60556 | 28021 ft | 473 kts | 82° |
| 2026-04-28 20:48 | 39.65033 | 34.64803 | 28312 ft | 476 kts | 82° |
| 2026-04-28 20:48 | 39.65431 | 34.69054 | 28599 ft | 478 kts | 83° |
| 2026-04-28 20:48 | 39.65694 | 34.71915 | 28729 ft | 480 kts | 83° |
| 2026-04-28 20:49 | 39.66089 | 34.76295 | 28930 ft | 484 kts | 83° |
| 2026-04-28 20:49 | 39.66472 | 34.80588 | 29218 ft | 486 kts | 83° |
| 2026-04-28 20:49 | 39.66857 | 34.84934 | 29644 ft | 484 kts | 83° |
| 2026-04-28 20:49 | 39.67239 | 34.89265 | 30100 ft | 482 kts | 84° |
| 2026-04-28 20:50 | 39.67620 | 34.93580 | 30442 ft | 481 kts | 84° |
| 2026-04-28 20:50 | 39.67999 | 34.97899 | 30726 ft | 481 kts | 84° |
| 2026-04-28 20:50 | 39.68368 | 35.02110 | 31005 ft | 481 kts | 84° |
| 2026-04-28 20:50 | 39.68744 | 35.06420 | 31329 ft | 481 kts | 84° |
| 2026-04-28 20:51 | 39.69119 | 35.10734 | 31635 ft | 480 kts | 84° |
| 2026-04-28 20:51 | 39.69491 | 35.15040 | 31917 ft | 480 kts | 84° |
| 2026-04-28 20:51 | 39.69862 | 35.19352 | 32151 ft | 481 kts | 84° |
| 2026-04-28 20:51 | 39.70232 | 35.23674 | 32424 ft | 481 kts | 84° |
| 2026-04-28 20:52 | 39.70600 | 35.27990 | 32752 ft | 480 kts | 84° |
| 2026-04-28 20:52 | 39.70966 | 35.32295 | 33066 ft | 479 kts | 84° |
| 2026-04-28 20:52 | 39.71329 | 35.36592 | 33340 ft | 479 kts | 84° |
| 2026-04-28 20:52 | 39.71692 | 35.40895 | 33603 ft | 479 kts | 84° |
| 2026-04-28 20:53 | 39.72410 | 35.49489 | 34157 ft | 478 kts | 84° |
| 2026-04-28 20:53 | 39.72767 | 35.53771 | 34420 ft | 477 kts | 84° |
| 2026-04-28 20:53 | 39.73121 | 35.58050 | 34638 ft | 477 kts | 84° |
| 2026-04-28 20:54 | 39.73472 | 35.62343 | 34744 ft | 479 kts | 84° |
| 2026-04-28 20:54 | 39.73823 | 35.66658 | 34878 ft | 481 kts | 84° |
| 2026-04-28 20:54 | 39.74173 | 35.70984 | 35054 ft | 482 kts | 84° |
| 2026-04-28 20:54 | 39.74522 | 35.75323 | 35039 ft | 484 kts | 84° |
| 2026-04-28 20:55 | 39.75217 | 35.84015 | 35042 ft | 482 kts | 84° |
| 2026-04-28 20:55 | 39.75900 | 35.92619 | 35058 ft | 477 kts | 85° |
| 2026-04-28 20:56 | 39.76560 | 36.01019 | 35068 ft | 476 kts | 85° |
| 2026-04-28 20:56 | 39.77226 | 36.09573 | 35066 ft | 476 kts | 85° |
| 2026-04-28 20:57 | 39.77886 | 36.18128 | 35065 ft | 476 kts | 85° |
| 2026-04-28 20:57 | 39.78460 | 36.26699 | 35065 ft | 476 kts | 89° |
| 2026-04-28 20:58 | 39.78569 | 36.35307 | 35070 ft | 477 kts | 91° |
| 2026-04-28 20:58 | 39.78594 | 36.43937 | 35073 ft | 478 kts | 91° |
| 2026-04-28 20:59 | 39.78654 | 36.52591 | 35066 ft | 479 kts | 90° |
| 2026-04-28 20:59 | 39.78733 | 36.61257 | 35085 ft | 480 kts | 90° |
| 2026-04-28 21:00 | 39.78807 | 36.69929 | 35092 ft | 480 kts | 90° |
| 2026-04-28 21:00 | 39.78874 | 36.78608 | 35103 ft | 480 kts | 91° |
| 2026-04-28 21:01 | 39.79069 | 36.87286 | 35092 ft | 481 kts | 83° |
| 2026-04-28 21:01 | 39.80836 | 36.95630 | 35106 ft | 480 kts | 66° |
| 2026-04-28 21:02 | 39.83462 | 37.03478 | 35099 ft | 480 kts | 66° |
| 2026-04-28 21:02 | 39.86103 | 37.11386 | 35091 ft | 479 kts | 66° |
| 2026-04-28 21:03 | 39.88716 | 37.19366 | 35074 ft | 479 kts | 67° |
| 2026-04-28 21:03 | 39.91302 | 37.27362 | 35061 ft | 479 kts | 67° |
| 2026-04-28 21:04 | 39.93876 | 37.35359 | 35054 ft | 479 kts | 67° |
| 2026-04-28 21:04 | 39.96447 | 37.43366 | 35054 ft | 479 kts | 67° |
| 2026-04-28 21:05 | 39.99014 | 37.51379 | 35049 ft | 479 kts | 67° |
| 2026-04-28 21:05 | 40.01576 | 37.59399 | 35056 ft | 479 kts | 67° |
| 2026-04-28 21:06 | 40.04133 | 37.67428 | 35049 ft | 479 kts | 67° |
| 2026-04-28 21:06 | 40.06687 | 37.75468 | 35053 ft | 479 kts | 67° |
| 2026-04-28 21:07 | 40.09236 | 37.83518 | 35041 ft | 480 kts | 67° |
| 2026-04-28 21:07 | 40.11783 | 37.91582 | 35044 ft | 480 kts | 68° |
| 2026-04-28 21:08 | 40.14324 | 37.99655 | 35038 ft | 480 kts | 68° |
| 2026-04-28 21:08 | 40.16816 | 38.07595 | 35050 ft | 480 kts | 68° |
| 2026-04-28 21:09 | 40.19347 | 38.15680 | 35048 ft | 480 kts | 68° |
| 2026-04-28 21:09 | 40.21872 | 38.23773 | 35045 ft | 481 kts | 68° |
| 2026-04-28 21:10 | 40.24392 | 38.31872 | 35047 ft | 481 kts | 68° |
| 2026-04-28 21:10 | 40.26908 | 38.39984 | 35044 ft | 481 kts | 68° |
| 2026-04-28 21:11 | 40.29416 | 38.48094 | 35040 ft | 480 kts | 68° |
| 2026-04-28 21:11 | 40.31918 | 38.56209 | 35047 ft | 480 kts | 68° |
| 2026-04-28 21:12 | 40.34416 | 38.64333 | 35058 ft | 480 kts | 68° |
| 2026-04-28 21:12 | 40.36907 | 38.72460 | 35056 ft | 480 kts | 68° |
| 2026-04-28 21:13 | 40.39390 | 38.80587 | 35047 ft | 480 kts | 68° |
| 2026-04-28 21:13 | 40.41870 | 38.88727 | 35049 ft | 480 kts | 68° |
| 2026-04-28 21:14 | 40.44344 | 38.96876 | 35055 ft | 481 kts | 69° |
| 2026-04-28 21:14 | 40.46774 | 39.04900 | 35047 ft | 481 kts | 69° |
| 2026-04-28 21:15 | 40.49239 | 39.13064 | 35058 ft | 481 kts | 69° |
| 2026-04-28 21:15 | 40.51696 | 39.21229 | 35066 ft | 480 kts | 69° |
| 2026-04-28 21:16 | 40.54145 | 39.29393 | 35056 ft | 480 kts | 69° |
| 2026-04-28 21:16 | 40.56589 | 39.37563 | 35078 ft | 480 kts | 69° |
| 2026-04-28 21:17 | 40.59011 | 39.45688 | 35083 ft | 481 kts | 69° |
| 2026-04-28 21:17 | 40.61446 | 39.53879 | 35084 ft | 481 kts | 69° |
| 2026-04-28 21:18 | 40.63878 | 39.62083 | 35095 ft | 481 kts | 69° |
| 2026-04-28 21:18 | 40.66300 | 39.70285 | 35112 ft | 480 kts | 69° |
| 2026-04-28 21:19 | 40.68716 | 39.78489 | 35095 ft | 480 kts | 69° |
| 2026-04-28 21:19 | 40.71127 | 39.86699 | 35087 ft | 480 kts | 69° |
| 2026-04-28 21:20 | 40.73531 | 39.94915 | 35105 ft | 480 kts | 69° |
| 2026-04-28 21:20 | 40.75891 | 40.03004 | 35104 ft | 480 kts | 70° |
| 2026-04-28 21:21 | 40.78280 | 40.11218 | 35100 ft | 480 kts | 70° |
| 2026-04-28 21:21 | 40.80668 | 40.19456 | 35107 ft | 480 kts | 70° |
| 2026-04-28 21:22 | 40.83050 | 40.27699 | 35112 ft | 481 kts | 70° |
| 2026-04-28 21:22 | 40.85027 | 40.34562 | 35115 ft | 481 kts | 70° |
| 2026-04-28 21:23 | 40.87804 | 40.44228 | 35115 ft | 482 kts | 70° |
| 2026-04-28 21:23 | 40.90173 | 40.52506 | 35118 ft | 482 kts | 70° |
| 2026-04-28 21:24 | 40.92540 | 40.60803 | 35123 ft | 482 kts | 70° |
| 2026-04-28 21:24 | 40.94901 | 40.69105 | 35126 ft | 482 kts | 70° |
| 2026-04-28 21:25 | 40.97241 | 40.77359 | 35118 ft | 482 kts | 70° |
| 2026-04-28 21:25 | 40.99589 | 40.85668 | 35130 ft | 482 kts | 70° |
| 2026-04-28 21:26 | 41.01927 | 40.93969 | 35124 ft | 482 kts | 70° |
| 2026-04-28 21:26 | 41.04223 | 41.02149 | 35120 ft | 481 kts | 70° |
| 2026-04-28 21:27 | 41.06548 | 41.10459 | 35116 ft | 481 kts | 70° |
| 2026-04-28 21:27 | 41.08866 | 41.18772 | 35107 ft | 481 kts | 71° |
| 2026-04-28 21:28 | 41.11176 | 41.27081 | 35104 ft | 481 kts | 71° |
| 2026-04-28 21:28 | 41.13482 | 41.35402 | 35099 ft | 481 kts | 71° |
| 2026-04-28 21:29 | 41.15782 | 41.43733 | 35106 ft | 481 kts | 71° |
| 2026-04-28 21:29 | 41.18078 | 41.52074 | 35115 ft | 481 kts | 71° |
| 2026-04-28 21:30 | 41.20364 | 41.60408 | 35131 ft | 481 kts | 71° |
| 2026-04-28 21:30 | 41.22647 | 41.68760 | 35110 ft | 481 kts | 71° |
| 2026-04-28 21:31 | 41.24925 | 41.77118 | 35122 ft | 481 kts | 71° |
| 2026-04-28 21:31 | 41.27177 | 41.85411 | 35110 ft | 480 kts | 71° |
| 2026-04-28 21:32 | 41.29440 | 41.93770 | 35124 ft | 480 kts | 72° |
| 2026-04-28 21:32 | 41.31023 | 42.02271 | 35135 ft | 478 kts | 82° |
| 2026-04-28 21:33 | 41.32061 | 42.10984 | 35098 ft | 477 kts | 83° |
| 2026-04-28 21:33 | 41.33109 | 42.19690 | 35085 ft | 477 kts | 83° |
| 2026-04-28 21:34 | 41.34205 | 42.28437 | 34582 ft | 484 kts | 82° |
| 2026-04-28 21:34 | 41.34761 | 42.32825 | 34225 ft | 478 kts | 82° |
| 2026-04-28 21:34 | 41.35307 | 42.37121 | 33731 ft | 475 kts | 82° |
| 2026-04-28 21:35 | 41.35853 | 42.41437 | 33278 ft | 471 kts | 82° |
| 2026-04-28 21:35 | 41.36392 | 42.45712 | 32841 ft | 467 kts | 82° |
| 2026-04-28 21:35 | 41.36925 | 42.49961 | 32417 ft | 463 kts | 82° |
| 2026-04-28 21:35 | 41.37450 | 42.54166 | 32006 ft | 459 kts | 82° |
| 2026-04-28 21:36 | 41.37969 | 42.58341 | 31584 ft | 455 kts | 82° |
| 2026-04-28 21:36 | 41.38482 | 42.62484 | 31181 ft | 451 kts | 83° |
| 2026-04-28 21:36 | 41.38989 | 42.66590 | 30845 ft | 446 kts | 83° |
| 2026-04-28 21:36 | 41.39327 | 42.69330 | 30622 ft | 443 kts | 83° |
| 2026-04-28 21:37 | 41.39823 | 42.73360 | 30264 ft | 439 kts | 83° |
| 2026-04-28 21:37 | 41.40307 | 42.77313 | 29808 ft | 437 kts | 83° |
| 2026-04-28 21:37 | 41.40799 | 42.81343 | 29338 ft | 434 kts | 83° |
| 2026-04-28 21:37 | 41.41281 | 42.85294 | 28883 ft | 430 kts | 83° |
| 2026-04-28 21:38 | 41.41755 | 42.89194 | 28396 ft | 423 kts | 83° |
| 2026-04-28 21:38 | 41.42222 | 42.93040 | 27713 ft | 419 kts | 82° |
| 2026-04-28 21:38 | 41.42684 | 42.96865 | 26996 ft | 416 kts | 82° |
| 2026-04-28 21:38 | 41.43126 | 43.00534 | 26436 ft | 411 kts | 82° |
| 2026-04-28 21:39 | 41.43573 | 43.04247 | 25994 ft | 402 kts | 82° |
| 2026-04-28 21:39 | 41.44008 | 43.07880 | 25591 ft | 392 kts | 82° |
| 2026-04-28 21:39 | 41.44427 | 43.11384 | 25214 ft | 384 kts | 82° |
| 2026-04-28 21:39 | 41.44842 | 43.14863 | 24847 ft | 376 kts | 82° |
| 2026-04-28 21:40 | 41.45248 | 43.18276 | 24487 ft | 370 kts | 82° |
| 2026-04-28 21:40 | 41.45646 | 43.21638 | 24136 ft | 366 kts | 82° |
| 2026-04-28 21:40 | 41.46044 | 43.25016 | 23807 ft | 376 kts | 82° |
| 2026-04-28 21:40 | 41.46459 | 43.28563 | 23387 ft | 396 kts | 82° |
| 2026-04-28 21:41 | 41.46883 | 43.32190 | 22967 ft | 395 kts | 82° |
| 2026-04-28 21:41 | 41.47306 | 43.35799 | 22535 ft | 392 kts | 82° |
| 2026-04-28 21:41 | 41.47727 | 43.39379 | 22135 ft | 389 kts | 82° |
| 2026-04-28 21:41 | 41.48143 | 43.42933 | 21749 ft | 386 kts | 82° |
| 2026-04-28 21:42 | 41.48553 | 43.46451 | 21384 ft | 383 kts | 82° |
| 2026-04-28 21:42 | 41.48959 | 43.49946 | 21011 ft | 380 kts | 82° |
| 2026-04-28 21:42 | 41.49360 | 43.53412 | 20637 ft | 377 kts | 82° |
| 2026-04-28 21:42 | 41.49757 | 43.56853 | 20275 ft | 374 kts | 82° |
| 2026-04-28 21:43 | 41.50151 | 43.60271 | 19922 ft | 371 kts | 82° |
| 2026-04-28 21:43 | 41.50540 | 43.63663 | 19558 ft | 369 kts | 82° |
| 2026-04-28 21:43 | 41.50926 | 43.67036 | 19192 ft | 367 kts | 82° |
| 2026-04-28 21:43 | 41.51309 | 43.70388 | 18836 ft | 364 kts | 82° |
| 2026-04-28 21:44 | 41.51688 | 43.73722 | 18481 ft | 362 kts | 83° |
| 2026-04-28 21:44 | 41.52064 | 43.77038 | 18098 ft | 361 kts | 82° |
| 2026-04-28 21:44 | 41.52437 | 43.80335 | 17699 ft | 358 kts | 82° |
| 2026-04-28 21:44 | 41.52806 | 43.83605 | 17338 ft | 355 kts | 82° |
| 2026-04-28 21:45 | 41.53171 | 43.86846 | 16989 ft | 351 kts | 82° |
| 2026-04-28 21:45 | 41.53532 | 43.90056 | 16632 ft | 348 kts | 82° |
| 2026-04-28 21:45 | 41.53889 | 43.93242 | 16284 ft | 346 kts | 82° |
| 2026-04-28 21:45 | 41.54243 | 43.96406 | 15934 ft | 343 kts | 82° |
| 2026-04-28 21:46 | 41.54593 | 43.99548 | 15590 ft | 341 kts | 82° |
| 2026-04-28 21:46 | 41.54928 | 44.02561 | 15264 ft | 339 kts | 82° |
| 2026-04-28 21:46 | 41.55272 | 44.05658 | 14983 ft | 335 kts | 82° |
| 2026-04-28 21:46 | 41.55607 | 44.08691 | 14857 ft | 326 kts | 82° |
| 2026-04-28 21:47 | 41.55933 | 44.11645 | 14716 ft | 318 kts | 82° |
| 2026-04-28 21:47 | 41.56251 | 44.14527 | 14583 ft | 310 kts | 82° |
| 2026-04-28 21:47 | 41.56561 | 44.17343 | 14468 ft | 302 kts | 82° |
| 2026-04-28 21:47 | 41.56861 | 44.20086 | 14336 ft | 295 kts | 82° |
| 2026-04-28 21:48 | 41.57154 | 44.22760 | 14221 ft | 288 kts | 82° |
| 2026-04-28 21:48 | 41.57147 | 44.25412 | 13952 ft | 285 kts | 104° |
| 2026-04-28 21:48 | 41.56285 | 44.27755 | 13702 ft | 282 kts | 130° |
| 2026-04-28 21:48 | 41.54771 | 44.29367 | 13449 ft | 280 kts | 154° |
| 2026-04-28 21:49 | 41.52896 | 44.29992 | 13186 ft | 279 kts | 179° |
| 2026-04-28 21:49 | 41.51005 | 44.29511 | 12914 ft | 279 kts | 204° |
| 2026-04-28 21:49 | 41.49445 | 44.28005 | 12668 ft | 279 kts | 229° |
| 2026-04-28 21:49 | 41.48465 | 44.25803 | 12405 ft | 277 kts | 251° |
| 2026-04-28 21:50 | 41.48074 | 44.23297 | 12165 ft | 275 kts | 261° |
| 2026-04-28 21:50 | 41.47794 | 44.20781 | 11920 ft | 274 kts | 261° |
| 2026-04-28 21:50 | 41.47511 | 44.18282 | 11665 ft | 272 kts | 260° |
| 2026-04-28 21:50 | 41.47221 | 44.15795 | 11440 ft | 270 kts | 259° |
| 2026-04-28 21:51 | 41.47011 | 44.13334 | 11307 ft | 266 kts | 273° |
| 2026-04-28 21:51 | 41.47579 | 44.11012 | 11252 ft | 272 kts | 305° |
| 2026-04-28 21:51 | 41.49009 | 44.09227 | 11353 ft | 295 kts | 332° |
| 2026-04-28 21:51 | 41.51000 | 44.08335 | 11541 ft | 313 kts | 354° |
| 2026-04-28 21:52 | 41.53216 | 44.08493 | 11305 ft | 325 kts | 17° |
| 2026-04-28 21:52 | 41.55155 | 44.09875 | 11060 ft | 321 kts | 45° |
| 2026-04-28 21:52 | 41.56356 | 44.12316 | 10820 ft | 315 kts | 75° |
| 2026-04-28 21:52 | 41.56676 | 44.15176 | 10624 ft | 311 kts | 88° |
| 2026-04-28 21:53 | 41.56837 | 44.18099 | 10378 ft | 312 kts | 86° |
| 2026-04-28 21:53 | 41.57077 | 44.20928 | 10130 ft | 311 kts | 79° |
| 2026-04-28 21:53 | 41.57988 | 44.23561 | 9968 ft | 310 kts | 53° |
| 2026-04-28 21:53 | 41.59560 | 44.25408 | 9846 ft | 303 kts | 35° |
| 2026-04-28 21:54 | 41.61295 | 44.26949 | 9701 ft | 296 kts | 35° |
| 2026-04-28 21:54 | 41.62991 | 44.28447 | 9554 ft | 289 kts | 35° |
| 2026-04-28 21:54 | 41.64647 | 44.29914 | 9395 ft | 282 kts | 35° |
| 2026-04-28 21:54 | 41.66263 | 44.31356 | 9261 ft | 278 kts | 36° |
| 2026-04-28 21:55 | 41.67882 | 44.32809 | 9154 ft | 282 kts | 36° |
| 2026-04-28 21:55 | 41.69509 | 44.34277 | 9016 ft | 282 kts | 35° |
| 2026-04-28 21:55 | 41.71128 | 44.35739 | 8886 ft | 280 kts | 36° |
| 2026-04-28 21:55 | 41.72732 | 44.37191 | 8751 ft | 277 kts | 36° |
| 2026-04-28 21:56 | 41.74330 | 44.38640 | 8621 ft | 279 kts | 36° |
| 2026-04-28 21:56 | 41.75986 | 44.40148 | 8520 ft | 294 kts | 36° |
| 2026-04-28 21:56 | 41.77672 | 44.41678 | 8397 ft | 292 kts | 37° |
| 2026-04-28 21:56 | 41.79337 | 44.43189 | 8259 ft | 286 kts | 37° |
| 2026-04-28 21:57 | 41.80965 | 44.44669 | 8091 ft | 279 kts | 36° |
| 2026-04-28 21:57 | 41.82548 | 44.46110 | 7970 ft | 272 kts | 36° |
| 2026-04-28 21:57 | 41.84079 | 44.47590 | 7846 ft | 271 kts | 44° |
| 2026-04-28 21:57 | 41.85400 | 44.49379 | 7735 ft | 269 kts | 51° |
| 2026-04-28 21:58 | 41.86663 | 44.51233 | 7606 ft | 270 kts | 50° |
| 2026-04-28 21:58 | 41.87940 | 44.53080 | 7496 ft | 270 kts | 49° |
| 2026-04-28 21:58 | 41.89237 | 44.54921 | 7374 ft | 271 kts | 49° |
| 2026-04-28 21:58 | 41.90537 | 44.56753 | 7243 ft | 271 kts | 48° |
| 2026-04-28 21:59 | 41.91694 | 44.58688 | 7082 ft | 262 kts | 66° |
| 2026-04-28 21:59 | 41.92049 | 44.61006 | 6952 ft | 251 kts | 95° |
| 2026-04-28 21:59 | 41.91615 | 44.63220 | 6838 ft | 244 kts | 117° |
| 2026-04-28 22:00 | 41.89558 | 44.66673 | 6585 ft | 231 kts | 131° |
| 2026-04-28 22:00 | 41.88460 | 44.68215 | 6454 ft | 224 kts | 135° |
| 2026-04-28 22:00 | 41.87367 | 44.69627 | 6345 ft | 213 kts | 136° |
| 2026-04-28 22:00 | 41.86305 | 44.70960 | 6191 ft | 207 kts | 136° |
| 2026-04-28 22:01 | 41.85263 | 44.72259 | 5970 ft | 202 kts | 137° |
| 2026-04-28 22:01 | 41.84241 | 44.73530 | 5750 ft | 198 kts | 137° |
| 2026-04-28 22:01 | 41.83243 | 44.74773 | 5627 ft | 198 kts | 137° |
| 2026-04-28 22:01 | 41.82212 | 44.76053 | 5509 ft | 203 kts | 136° |
| 2026-04-28 22:02 | 41.81192 | 44.77324 | 5379 ft | 196 kts | 136° |
| 2026-04-28 22:02 | 41.80219 | 44.78533 | 5308 ft | 184 kts | 136° |
| 2026-04-28 22:02 | 41.79298 | 44.79681 | 5173 ft | 181 kts | 136° |
| 2026-04-28 22:02 | 41.78369 | 44.80838 | 4914 ft | 183 kts | 136° |
| 2026-04-28 22:03 | 41.77442 | 44.81994 | 4618 ft | 180 kts | 136° |
| 2026-04-28 22:03 | 41.76547 | 44.83108 | 4338 ft | 170 kts | 136° |
| 2026-04-28 22:03 | 41.75708 | 44.84153 | 4068 ft | 160 kts | 136° |
| 2026-04-28 22:03 | 41.74907 | 44.85151 | 3877 ft | 156 kts | 136° |
| 2026-04-28 22:04 | 41.74088 | 44.86170 | 3604 ft | 162 kts | 136° |
| 2026-04-28 22:04 | 41.73266 | 44.87198 | 3311 ft | 159 kts | 136° |
| 2026-04-28 22:04 | 41.72489 | 44.88167 | 3042 ft | 150 kts | 136° |
| 2026-04-28 22:04 | 41.71730 | 44.89111 | 2836 ft | 143 kts | 136° |
| 2026-04-28 22:05 | 41.71009 | 44.90012 | 2571 ft | 146 kts | 136° |
| 2026-04-28 22:05 | 41.70268 | 44.90924 | 2387 ft | 146 kts | 137° |
| 2026-04-28 22:05 | 41.69509 | 44.91840 | 2140 ft | 147 kts | 135° |
| 2026-04-28 22:05 | 41.68760 | 44.92777 | 1890 ft | 149 kts | 135° |
| 2026-04-28 22:06 | 41.68004 | 44.93743 | 1646 ft | 152 kts | 135° |
| 2026-04-28 22:06 | 41.67247 | 44.94681 | 1522 ft | 139 kts | 134° |
| 2026-04-28 22:06 | 41.66631 | 44.95468 | 1523 ft | 105 kts | 136° |
| 2026-04-28 22:06 | 41.66182 | 44.96033 | 1525 ft | 71 kts | 137° |
| 2026-04-28 22:07 | 41.65930 | 44.96348 | 1524 ft | 32 kts | 137° |
| 2026-04-28 22:07 | 41.65842 | 44.96489 | 1521 ft | 5 kts | 102° |
| 2026-04-28 22:07 | 41.65843 | 44.96524 | 1524 ft | 4 kts | 78° |
| 2026-04-28 22:07 | 41.65854 | 44.96561 | 1520 ft | 4 kts | 64° |
| 2026-04-28 22:08 | 41.65872 | 44.96586 | 1523 ft | 2 kts | 37° |
| 2026-04-28 22:08 | 41.65885 | 44.96596 | 1520 ft | 2 kts | 21° |
| 2026-04-28 22:08 | 41.65903 | 44.96601 | 1525 ft | 3 kts | 7° |
| 2026-04-28 22:08 | 41.65931 | 44.96595 | 1522 ft | 5 kts | 340° |
| 2026-04-28 22:09 | 41.65966 | 44.96561 | 1525 ft | 7 kts | 317° |
| 2026-04-28 22:09 | 41.66008 | 44.96508 | 1525 ft | 9 kts | 316° |
| 2026-04-28 22:09 | 41.66060 | 44.96443 | 1524 ft | 11 kts | 316° |
| 2026-04-28 22:09 | 41.66120 | 44.96366 | 1522 ft | 13 kts | 316° |
| 2026-04-28 22:10 | 41.66200 | 44.96308 | 1525 ft | 13 kts | 343° |
| 2026-04-28 22:10 | 41.66288 | 44.96305 | 1524 ft | 13 kts | 9° |
| 2026-04-28 22:10 | 41.66373 | 44.96330 | 1524 ft | 12 kts | 13° |
| 2026-04-28 22:10 | 41.66455 | 44.96356 | 1519 ft | 12 kts | 14° |
| 2026-04-28 22:11 | 41.66535 | 44.96382 | 1525 ft | 12 kts | 13° |
| 2026-04-28 22:11 | 41.66614 | 44.96407 | 1521 ft | 11 kts | 13° |
| 2026-04-28 22:11 | 41.66689 | 44.96429 | 1526 ft | 11 kts | 1° |
| 2026-04-28 22:11 | 41.66755 | 44.96385 | 1523 ft | 11 kts | 313° |
| 2026-04-28 22:12 | 41.66805 | 44.96313 | 1523 ft | 10 kts | 313° |
| 2026-04-28 22:12 | 41.66859 | 44.96300 | 1526 ft | 9 kts | 38° |
| 2026-04-28 22:12 | 41.66876 | 44.96320 | 1526 ft | 0 kts | 43° |
| 2026-04-28 22:12 | 41.66879 | 44.96323 | 1526 ft | 1 kts | 43° |
| 2026-04-28 22:13 | 41.66883 | 44.96329 | 1523 ft | 1 kts | 43° |
| 2026-04-28 22:13 | 41.66894 | 44.96343 | 1520 ft | 3 kts | 42° |
| 2026-04-28 22:13 | 41.66895 | 44.96344 | 1521 ft | 0 kts | 42° |